Terminal Aerodrome Forecast
Issued by NWS

Home | Current Version | Previous Version | Text Only | Print | Product List | Glossary On
Versions: 1 2 3 4 5 6 7 8 9 10 11 12 13 14 15 16 17 18 19 20 21 22 23 24
839
FTUS43 KMPX 251430 AAA
TAFRNH
TAF AMD
KRNH 251430Z 2515/2612 25012G20KT P6SM OVC009
     FM251600 25015G25KT P6SM SCT015
     FM251700 25015G23KT P6SM BKN035
     FM252200 25013KT P6SM SCT045
     FM260200 24009KT P6SM FEW140
     FM260600 22005KT P6SM SKC=

USA.gov is the U.S. government's official web portal to all federal, state and local government web resources and services.